sensor_id;sensor_type;location;lat;lon;timestamp;pressure;altitude;pressure_sealevel;temperature;humidity
7834;BME280;3962;42.696;23.354;2024-01-11T00:00:25;96130.56;;;-3.78;80.35
7834;BME280;3962;42.696;23.354;2024-01-11T00:02:52;96125.34;;;-3.78;80.30
7834;BME280;3962;42.696;23.354;2024-01-11T00:05:20;96119.41;;;-3.82;79.53
7834;BME280;3962;42.696;23.354;2024-01-11T00:07:49;96118.81;;;-3.91;79.85
7834;BME280;3962;42.696;23.354;2024-01-11T00:10:17;96103.13;;;-3.88;79.94
7834;BME280;3962;42.696;23.354;2024-01-11T00:12:44;96111.72;;;-3.86;79.22
7834;BME280;3962;42.696;23.354;2024-01-11T00:15:11;96105.59;;;-3.84;78.91
7834;BME280;3962;42.696;23.354;2024-01-11T00:17:41;96100.31;;;-3.81;78.29
7834;BME280;3962;42.696;23.354;2024-01-11T00:20:08;96109.91;;;-3.83;77.53
7834;BME280;3962;42.696;23.354;2024-01-11T00:22:37;96104.88;;;-3.89;77.68
7834;BME280;3962;42.696;23.354;2024-01-11T00:25:05;96102.44;;;-3.95;78.21
7834;BME280;3962;42.696;23.354;2024-01-11T00:27:32;96100.91;;;-4.02;78.41
7834;BME280;3962;42.696;23.354;2024-01-11T00:29:59;96091.22;;;-4.27;78.51
7834;BME280;3962;42.696;23.354;2024-01-11T00:32:25;96097.72;;;-4.45;79.68
7834;BME280;3962;42.696;23.354;2024-01-11T00:34:52;96097.13;;;-4.54;80.98
7834;BME280;3962;42.696;23.354;2024-01-11T00:37:19;96101.72;;;-4.65;81.34
7834;BME280;3962;42.696;23.354;2024-01-11T00:39:47;96098.41;;;-4.70;81.90
7834;BME280;3962;42.696;23.354;2024-01-11T00:42:15;96095.72;;;-4.67;82.48
7834;BME280;3962;42.696;23.354;2024-01-11T00:44:41;96100.13;;;-4.69;83.55
7834;BME280;3962;42.696;23.354;2024-01-11T00:47:10;96095.59;;;-4.63;83.51
7834;BME280;3962;42.696;23.354;2024-01-11T00:49:37;96096.59;;;-4.67;83.19
7834;BME280;3962;42.696;23.354;2024-01-11T00:52:04;96093.03;;;-4.64;83.59
7834;BME280;3962;42.696;23.354;2024-01-11T00:54:31;96088.75;;;-4.65;83.29
7834;BME280;3962;42.696;23.354;2024-01-11T00:57:02;96084.56;;;-4.71;83.28
7834;BME280;3962;42.696;23.354;2024-01-11T00:59:29;96074.22;;;-4.72;83.21
7834;BME280;3962;42.696;23.354;2024-01-11T01:01:56;96075.97;;;-4.73;83.37
7834;BME280;3962;42.696;23.354;2024-01-11T01:04:23;96077.66;;;-4.70;83.47
7834;BME280;3962;42.696;23.354;2024-01-11T01:06:50;96080.19;;;-4.69;83.05
7834;BME280;3962;42.696;23.354;2024-01-11T01:09:17;96084.53;;;-4.69;82.87
7834;BME280;3962;42.696;23.354;2024-01-11T01:11:44;96083.50;;;-4.62;83.00
7834;BME280;3962;42.696;23.354;2024-01-11T01:14:12;96076.47;;;-4.59;82.50
7834;BME280;3962;42.696;23.354;2024-01-11T01:16:39;96073.88;;;-4.59;82.14
7834;BME280;3962;42.696;23.354;2024-01-11T01:19:06;96072.13;;;-4.58;81.70
7834;BME280;3962;42.696;23.354;2024-01-11T01:21:33;96083.66;;;-4.68;82.09
7834;BME280;3962;42.696;23.354;2024-01-11T01:24:00;96080.38;;;-4.76;82.22
7834;BME280;3962;42.696;23.354;2024-01-11T01:26:27;96075.22;;;-4.78;82.09
7834;BME280;3962;42.696;23.354;2024-01-11T01:28:54;96074.44;;;-4.81;82.23
7834;BME280;3962;42.696;23.354;2024-01-11T01:31:22;96071.31;;;-4.94;81.60
7834;BME280;3962;42.696;23.354;2024-01-11T01:33:49;96071.34;;;-4.95;82.34
7834;BME280;3962;42.696;23.354;2024-01-11T01:36:16;96074.78;;;-4.95;82.02
7834;BME280;3962;42.696;23.354;2024-01-11T01:38:43;96068.72;;;-4.94;82.41
7834;BME280;3962;42.696;23.354;2024-01-11T01:41:10;96066.09;;;-4.92;82.56
7834;BME280;3962;42.696;23.354;2024-01-11T01:43:38;96064.19;;;-4.86;82.20
7834;BME280;3962;42.696;23.354;2024-01-11T01:46:05;96056.34;;;-4.83;81.81
7834;BME280;3962;42.696;23.354;2024-01-11T01:48:34;96048.03;;;-4.97;81.17
7834;BME280;3962;42.696;23.354;2024-01-11T01:51:01;96046.69;;;-5.11;81.38
7834;BME280;3962;42.696;23.354;2024-01-11T01:53:29;96050.97;;;-5.10;80.96
7834;BME280;3962;42.696;23.354;2024-01-11T01:55:57;96052.84;;;-5.17;81.21
7834;BME280;3962;42.696;23.354;2024-01-11T01:58:24;96046.03;;;-5.21;81.42
7834;BME280;3962;42.696;23.354;2024-01-11T02:00:51;96048.75;;;-5.27;81.65
7834;BME280;3962;42.696;23.354;2024-01-11T02:03:18;96035.88;;;-5.30;82.24
7834;BME280;3962;42.696;23.354;2024-01-11T02:05:47;96036.13;;;-5.40;81.45
7834;BME280;3962;42.696;23.354;2024-01-11T02:08:16;96036.63;;;-5.63;81.95
7834;BME280;3962;42.696;23.354;2024-01-11T02:10:43;96031.81;;;-5.78;82.46
7834;BME280;3962;42.696;23.354;2024-01-11T02:13:12;96033.66;;;-5.81;82.40
7834;BME280;3962;42.696;23.354;2024-01-11T02:15:39;96036.28;;;-5.84;82.88
7834;BME280;3962;42.696;23.354;2024-01-11T02:18:06;96030.28;;;-5.85;83.16
7834;BME280;3962;42.696;23.354;2024-01-11T02:20:33;96027.59;;;-5.82;83.67
7834;BME280;3962;42.696;23.354;2024-01-11T02:23:05;96031.00;;;-5.80;83.63
7834;BME280;3962;42.696;23.354;2024-01-11T02:25:34;96030.16;;;-5.80;83.73
7834;BME280;3962;42.696;23.354;2024-01-11T02:28:01;96029.31;;;-5.82;83.49
7834;BME280;3962;42.696;23.354;2024-01-11T02:30:27;96029.16;;;-5.76;83.53
7834;BME280;3962;42.696;23.354;2024-01-11T02:32:55;96021.41;;;-5.76;83.92
7834;BME280;3962;42.696;23.354;2024-01-11T02:35:23;96030.00;;;-5.74;83.98
7834;BME280;3962;42.696;23.354;2024-01-11T02:37:51;96030.94;;;-5.78;84.04
7834;BME280;3962;42.696;23.354;2024-01-11T02:40:18;96030.94;;;-5.78;83.41
7834;BME280;3962;42.696;23.354;2024-01-11T02:42:47;96026.69;;;-5.79;83.76
7834;BME280;3962;42.696;23.354;2024-01-11T02:45:14;96027.47;;;-5.77;84.25
7834;BME280;3962;42.696;23.354;2024-01-11T02:47:41;96023.06;;;-5.74;84.44
7834;BME280;3962;42.696;23.354;2024-01-11T02:50:08;96022.19;;;-5.73;84.42
7834;BME280;3962;42.696;23.354;2024-01-11T02:52:37;96019.47;;;-5.67;85.26
7834;BME280;3962;42.696;23.354;2024-01-11T02:55:04;96015.75;;;-5.55;85.09
7834;BME280;3962;42.696;23.354;2024-01-11T02:57:31;96009.47;;;-5.47;84.88
7834;BME280;3962;42.696;23.354;2024-01-11T03:00:00;96012.38;;;-5.60;84.48
7834;BME280;3962;42.696;23.354;2024-01-11T03:02:27;96007.97;;;-5.55;84.47
7834;BME280;3962;42.696;23.354;2024-01-11T03:04:54;96013.50;;;-5.72;84.17
7834;BME280;3962;42.696;23.354;2024-01-11T03:07:21;96009.09;;;-5.67;84.90
7834;BME280;3962;42.696;23.354;2024-01-11T03:09:47;96008.88;;;-5.58;85.08
7834;BME280;3962;42.696;23.354;2024-01-11T03:12:14;96007.03;;;-5.53;84.80
7834;BME280;3962;42.696;23.354;2024-01-11T03:14:41;96006.31;;;-5.59;84.43
7834;BME280;3962;42.696;23.354;2024-01-11T03:17:09;96018.53;;;-5.64;84.87
7834;BME280;3962;42.696;23.354;2024-01-11T03:19:39;96002.78;;;-5.55;84.93
7834;BME280;3962;42.696;23.354;2024-01-11T03:22:06;96015.59;;;-5.49;84.31
7834;BME280;3962;42.696;23.354;2024-01-11T03:24:33;96006.16;;;-5.52;84.42
7834;BME280;3962;42.696;23.354;2024-01-11T03:26:59;96008.19;;;-5.66;84.50
7834;BME280;3962;42.696;23.354;2024-01-11T03:29:29;96012.63;;;-5.71;84.82
7834;BME280;3962;42.696;23.354;2024-01-11T03:31:56;96010.00;;;-5.69;84.51
7834;BME280;3962;42.696;23.354;2024-01-11T03:34:24;96005.75;;;-5.72;84.87
7834;BME280;3962;42.696;23.354;2024-01-11T03:36:51;96001.41;;;-5.70;84.96
7834;BME280;3962;42.696;23.354;2024-01-11T03:39:18;96003.47;;;-5.84;84.96
7834;BME280;3962;42.696;23.354;2024-01-11T03:41:45;95996.84;;;-5.97;86.07
7834;BME280;3962;42.696;23.354;2024-01-11T03:44:12;96000.34;;;-5.99;86.20
7834;BME280;3962;42.696;23.354;2024-01-11T03:46:39;95996.06;;;-6.00;86.91
7834;BME280;3962;42.696;23.354;2024-01-11T03:49:06;95993.09;;;-5.84;87.20
7834;BME280;3962;42.696;23.354;2024-01-11T03:51:34;95989.78;;;-5.90;86.87
7834;BME280;3962;42.696;23.354;2024-01-11T03:54:02;95990.44;;;-5.81;87.21
7834;BME280;3962;42.696;23.354;2024-01-11T03:56:29;95988.59;;;-5.77;86.95
7834;BME280;3962;42.696;23.354;2024-01-11T03:58:56;95989.47;;;-5.77;87.16
7834;BME280;3962;42.696;23.354;2024-01-11T04:01:23;95986.34;;;-5.89;86.54
7834;BME280;3962;42.696;23.354;2024-01-11T04:03:50;95979.25;;;-5.83;87.10
7834;BME280;3962;42.696;23.354;2024-01-11T04:06:21;95983.53;;;-5.80;87.17
7834;BME280;3962;42.696;23.354;2024-01-11T04:08:51;95982.41;;;-5.72;86.91
7834;BME280;3962;42.696;23.354;2024-01-11T04:11:18;95986.72;;;-5.71;86.44
7834;BME280;3962;42.696;23.354;2024-01-11T04:13:45;95989.00;;;-5.57;86.86
7834;BME280;3962;42.696;23.354;2024-01-11T04:16:11;95985.41;;;-5.52;85.50
7834;BME280;3962;42.696;23.354;2024-01-11T04:18:39;95982.50;;;-5.75;84.38
7834;BME280;3962;42.696;23.354;2024-01-11T04:21:05;95976.75;;;-5.86;84.87
7834;BME280;3962;42.696;23.354;2024-01-11T04:23:33;95973.72;;;-6.04;84.81
7834;BME280;3962;42.696;23.354;2024-01-11T04:26:01;95983.19;;;-6.03;84.78
7834;BME280;3962;42.696;23.354;2024-01-11T04:28:28;95969.31;;;-6.01;85.33
7834;BME280;3962;42.696;23.354;2024-01-11T04:30:55;95969.38;;;-6.04;85.01
7834;BME280;3962;42.696;23.354;2024-01-11T04:33:22;95970.28;;;-6.06;85.14
7834;BME280;3962;42.696;23.354;2024-01-11T04:35:49;95973.84;;;-6.10;85.01
7834;BME280;3962;42.696;23.354;2024-01-11T04:38:16;95973.84;;;-6.10;84.85
7834;BME280;3962;42.696;23.354;2024-01-11T04:40:43;95979.03;;;-6.12;85.74
7834;BME280;3962;42.696;23.354;2024-01-11T04:43:11;95977.41;;;-6.16;85.28
7834;BME280;3962;42.696;23.354;2024-01-11T04:45:38;95984.28;;;-6.13;85.82
7834;BME280;3962;42.696;23.354;2024-01-11T04:48:05;95980.91;;;-6.17;85.41
7834;BME280;3962;42.696;23.354;2024-01-11T04:50:32;95991.19;;;-6.14;85.91
7834;BME280;3962;42.696;23.354;2024-01-11T04:52:59;95980.91;;;-6.18;85.83
7834;BME280;3962;42.696;23.354;2024-01-11T04:55:26;95983.47;;;-6.17;85.78
7834;BME280;3962;42.696;23.354;2024-01-11T04:57:53;95980.91;;;-6.18;86.10
7834;BME280;3962;42.696;23.354;2024-01-11T05:00:22;95985.22;;;-6.17;86.23
7834;BME280;3962;42.696;23.354;2024-01-11T05:02:49;95982.63;;;-6.17;86.68
7834;BME280;3962;42.696;23.354;2024-01-11T05:05:16;95987.78;;;-6.17;85.71
7834;BME280;3962;42.696;23.354;2024-01-11T05:07:42;95983.44;;;-6.15;85.68
7834;BME280;3962;42.696;23.354;2024-01-11T05:10:09;95987.69;;;-6.11;86.17
7834;BME280;3962;42.696;23.354;2024-01-11T05:12:36;95988.59;;;-6.14;85.76
7834;BME280;3962;42.696;23.354;2024-01-11T05:15:04;95982.59;;;-6.16;86.13
7834;BME280;3962;42.696;23.354;2024-01-11T05:17:35;95966.28;;;-6.19;86.44
7834;BME280;3962;42.696;23.354;2024-01-11T05:20:02;95968.75;;;-6.13;86.09
7834;BME280;3962;42.696;23.354;2024-01-11T05:22:29;95966.19;;;-6.16;85.92
7834;BME280;3962;42.696;23.354;2024-01-11T05:24:57;95973.06;;;-6.15;86.12
7834;BME280;3962;42.696;23.354;2024-01-11T05:27:25;95971.34;;;-6.15;85.92
7834;BME280;3962;42.696;23.354;2024-01-11T05:29:52;95960.13;;;-6.15;86.75
7834;BME280;3962;42.696;23.354;2024-01-11T05:32:22;95966.06;;;-6.10;85.89
7834;BME280;3962;42.696;23.354;2024-01-11T05:34:51;95956.59;;;-6.11;86.21
7834;BME280;3962;42.696;23.354;2024-01-11T05:37:18;95959.00;;;-6.04;86.72
7834;BME280;3962;42.696;23.354;2024-01-11T05:39:46;95951.91;;;-5.96;86.88
7834;BME280;3962;42.696;23.354;2024-01-11T05:42:13;95959.63;;;-5.93;86.66
7834;BME280;3962;42.696;23.354;2024-01-11T05:44:40;95957.94;;;-5.94;86.34
7834;BME280;3962;42.696;23.354;2024-01-11T05:47:07;95949.38;;;-5.97;85.86
7834;BME280;3962;42.696;23.354;2024-01-11T05:49:34;95944.13;;;-5.94;86.19
7834;BME280;3962;42.696;23.354;2024-01-11T05:52:03;95946.00;;;-6.01;86.16
7834;BME280;3962;42.696;23.354;2024-01-11T05:54:30;95946.97;;;-6.06;86.18
7834;BME280;3962;42.696;23.354;2024-01-11T05:56:57;95940.09;;;-6.07;86.70
7834;BME280;3962;42.696;23.354;2024-01-11T05:59:25;95938.28;;;-6.04;87.22
7834;BME280;3962;42.696;23.354;2024-01-11T06:01:52;95936.59;;;-6.05;87.09
7834;BME280;3962;42.696;23.354;2024-01-11T06:04:18;95940.03;;;-6.04;86.89
7834;BME280;3962;42.696;23.354;2024-01-11T06:06:45;95938.25;;;-6.01;87.05
7834;BME280;3962;42.696;23.354;2024-01-11T06:09:14;95936.59;;;-6.06;86.73
7834;BME280;3962;42.696;23.354;2024-01-11T06:11:42;95931.53;;;-6.11;86.31
7834;BME280;3962;42.696;23.354;2024-01-11T06:14:10;95933.28;;;-6.11;86.62
7834;BME280;3962;42.696;23.354;2024-01-11T06:16:36;95935.97;;;-6.16;86.36
7834;BME280;3962;42.696;23.354;2024-01-11T06:19:04;95934.19;;;-6.14;86.70
7834;BME280;3962;42.696;23.354;2024-01-11T06:21:32;95935.00;;;-6.10;87.04
7834;BME280;3962;42.696;23.354;2024-01-11T06:23:59;95933.88;;;-6.00;86.81
7834;BME280;3962;42.696;23.354;2024-01-11T06:26:28;95932.94;;;-5.96;86.79
7834;BME280;3962;42.696;23.354;2024-01-11T06:28:56;95931.09;;;-5.91;86.14
7834;BME280;3962;42.696;23.354;2024-01-11T06:31:24;95927.53;;;-5.86;85.96
7834;BME280;3962;42.696;23.354;2024-01-11T06:33:52;95925.69;;;-5.82;85.46
7834;BME280;3962;42.696;23.354;2024-01-11T06:36:19;95923.84;;;-5.79;85.48
7834;BME280;3962;42.696;23.354;2024-01-11T06:38:46;95923.81;;;-5.77;85.01
7834;BME280;3962;42.696;23.354;2024-01-11T06:41:14;95920.44;;;-5.79;84.42
7834;BME280;3962;42.696;23.354;2024-01-11T06:43:42;95907.72;;;-5.88;84.98
7834;BME280;3962;42.696;23.354;2024-01-11T06:46:09;95926.56;;;-5.83;85.11
7834;BME280;3962;42.696;23.354;2024-01-11T06:48:36;95917.19;;;-5.87;85.47
7834;BME280;3962;42.696;23.354;2024-01-11T06:51:03;95919.75;;;-5.86;85.02
7834;BME280;3962;42.696;23.354;2024-01-11T06:53:30;95918.88;;;-5.86;85.41
7834;BME280;3962;42.696;23.354;2024-01-11T06:55:57;95921.34;;;-5.80;85.44
7834;BME280;3962;42.696;23.354;2024-01-11T06:58:26;95923.78;;;-5.76;86.11
7834;BME280;3962;42.696;23.354;2024-01-11T07:00:55;95916.91;;;-5.77;85.87
7834;BME280;3962;42.696;23.354;2024-01-11T07:03:22;95924.47;;;-5.68;85.70
7834;BME280;3962;42.696;23.354;2024-01-11T07:05:49;95928.94;;;-5.74;85.92
7834;BME280;3962;42.696;23.354;2024-01-11T07:08:17;95920.09;;;-5.67;86.10
7834;BME280;3962;42.696;23.354;2024-01-11T07:10:47;95916.66;;;-5.66;85.58
7834;BME280;3962;42.696;23.354;2024-01-11T07:13:14;95905.56;;;-5.73;85.62
7834;BME280;3962;42.696;23.354;2024-01-11T07:15:42;95919.84;;;-5.57;85.59
7834;BME280;3962;42.696;23.354;2024-01-11T07:18:11;95918.13;;;-5.56;85.24
7834;BME280;3962;42.696;23.354;2024-01-11T07:20:38;95918.81;;;-5.50;85.99
7834;BME280;3962;42.696;23.354;2024-01-11T07:23:05;95909.88;;;-5.38;85.19
7834;BME280;3962;42.696;23.354;2024-01-11T07:25:33;95913.94;;;-5.28;85.13
7834;BME280;3962;42.696;23.354;2024-01-11T07:28:01;95906.22;;;-5.30;84.76
7834;BME280;3962;42.696;23.354;2024-01-11T07:30:28;95897.44;;;-5.24;84.57
7834;BME280;3962;42.696;23.354;2024-01-11T07:32:55;95916.22;;;-5.16;83.53
7834;BME280;3962;42.696;23.354;2024-01-11T07:35:24;95900.50;;;-5.10;83.52
7834;BME280;3962;42.696;23.354;2024-01-11T07:37:51;95918.47;;;-5.04;83.75
7834;BME280;3962;42.696;23.354;2024-01-11T07:40:18;95912.06;;;-4.90;83.79
7834;BME280;3962;42.696;23.354;2024-01-11T07:42:46;95912.06;;;-4.90;83.21
7834;BME280;3962;42.696;23.354;2024-01-11T07:45:16;95910.16;;;-4.85;83.08
7834;BME280;3962;42.696;23.354;2024-01-11T07:47:43;95907.53;;;-4.83;83.07
7834;BME280;3962;42.696;23.354;2024-01-11T07:50:10;95909.97;;;-4.77;83.14
7834;BME280;3962;42.696;23.354;2024-01-11T07:52:39;95901.41;;;-4.81;83.20
7834;BME280;3962;42.696;23.354;2024-01-11T07:55:07;95899.63;;;-4.79;83.00
7834;BME280;3962;42.696;23.354;2024-01-11T07:57:36;95907.41;;;-4.79;82.60
7834;BME280;3962;42.696;23.354;2024-01-11T08:00:04;95901.94;;;-4.68;83.02
7834;BME280;3962;42.696;23.354;2024-01-11T08:02:33;95905.19;;;-4.62;82.57
7834;BME280;3962;42.696;23.354;2024-01-11T08:05:01;95850.41;;;-4.82;82.30
7834;BME280;3962;42.696;23.354;2024-01-11T08:07:30;95874.13;;;-4.65;82.06
7834;BME280;3962;42.696;23.354;2024-01-11T08:09:59;95899.59;;;-4.48;81.62
7834;BME280;3962;42.696;23.354;2024-01-11T08:12:26;95891.88;;;-4.50;81.86
7834;BME280;3962;42.696;23.354;2024-01-11T08:14:54;95902.53;;;-4.30;81.64
7834;BME280;3962;42.696;23.354;2024-01-11T08:17:21;95894.38;;;-4.18;81.11
7834;BME280;3962;42.696;23.354;2024-01-11T08:19:49;95891.94;;;-4.24;80.83
7834;BME280;3962;42.696;23.354;2024-01-11T08:22:17;95884.59;;;-3.31;81.25
7834;BME280;3962;42.696;23.354;2024-01-11T08:24:44;95888.44;;;-1.55;77.76
7834;BME280;3962;42.696;23.354;2024-01-11T08:27:12;95886.56;;;-0.12;71.85
7834;BME280;3962;42.696;23.354;2024-01-11T08:29:40;95876.19;;;0.59;66.75
7834;BME280;3962;42.696;23.354;2024-01-11T08:32:07;95889.31;;;0.93;63.54
7834;BME280;3962;42.696;23.354;2024-01-11T08:34:35;95883.00;;;0.97;62.09
7834;BME280;3962;42.696;23.354;2024-01-11T08:37:01;95886.03;;;1.23;62.06
7834;BME280;3962;42.696;23.354;2024-01-11T08:39:31;95878.06;;;1.59;59.75
7834;BME280;3962;42.696;23.354;2024-01-11T08:41:59;95886.00;;;1.57;60.26
7834;BME280;3962;42.696;23.354;2024-01-11T08:44:27;95881.31;;;1.79;59.54
7834;BME280;3962;42.696;23.354;2024-01-11T08:46:55;95890.53;;;2.03;58.81
7834;BME280;3962;42.696;23.354;2024-01-11T08:49:23;95879.53;;;2.28;57.67
7834;BME280;3962;42.696;23.354;2024-01-11T08:51:50;95883.44;;;2.67;56.76
7834;BME280;3962;42.696;23.354;2024-01-11T08:54:17;95870.13;;;2.39;56.84
7834;BME280;3962;42.696;23.354;2024-01-11T08:56:46;95869.97;;;2.27;56.01
7834;BME280;3962;42.696;23.354;2024-01-11T08:59:14;95868.09;;;2.13;57.15
7834;BME280;3962;42.696;23.354;2024-01-11T09:01:42;95867.63;;;2.83;55.43
7834;BME280;3962;42.696;23.354;2024-01-11T09:04:10;95862.97;;;2.88;55.17
7834;BME280;3962;42.696;23.354;2024-01-11T09:06:37;95851.31;;;2.78;54.25
7834;BME280;3962;42.696;23.354;2024-01-11T09:09:05;95856.25;;;2.53;54.92
7834;BME280;3962;42.696;23.354;2024-01-11T09:11:35;95836.09;;;2.38;55.34
7834;BME280;3962;42.696;23.354;2024-01-11T09:14:04;95842.44;;;2.34;56.49
7834;BME280;3962;42.696;23.354;2024-01-11T09:16:32;95846.09;;;2.47;55.62
7834;BME280;3962;42.696;23.354;2024-01-11T09:19:01;95840.06;;;2.14;56.17
7834;BME280;3962;42.696;23.354;2024-01-11T09:21:28;95828.44;;;1.71;57.01
7834;BME280;3962;42.696;23.354;2024-01-11T09:23:55;95823.81;;;1.59;58.28
7834;BME280;3962;42.696;23.354;2024-01-11T09:26:22;95828.38;;;1.23;58.53
7834;BME280;3962;42.696;23.354;2024-01-11T09:28:49;95824.34;;;1.33;58.76
7834;BME280;3962;42.696;23.354;2024-01-11T09:31:16;95821.19;;;1.27;61.18
7834;BME280;3962;42.696;23.354;2024-01-11T09:33:43;95823.22;;;1.54;59.49
7834;BME280;3962;42.696;23.354;2024-01-11T09:36:13;95810.31;;;1.82;58.60
7834;BME280;3962;42.696;23.354;2024-01-11T09:38:40;95803.03;;;1.72;58.95
7834;BME280;3962;42.696;23.354;2024-01-11T09:41:12;95804.19;;;1.66;59.38
7834;BME280;3962;42.696;23.354;2024-01-11T09:43:41;95799.97;;;1.64;58.67
7834;BME280;3962;42.696;23.354;2024-01-11T09:46:10;95794.47;;;0.86;59.21
7834;BME280;3962;42.696;23.354;2024-01-11T09:48:39;95781.81;;;1.11;59.08
7834;BME280;3962;42.696;23.354;2024-01-11T09:51:09;95773.91;;;1.28;59.39
7834;BME280;3962;42.696;23.354;2024-01-11T09:53:38;95766.66;;;1.01;59.98
7834;BME280;3962;42.696;23.354;2024-01-11T09:56:08;95773.09;;;1.28;59.02
7834;BME280;3962;42.696;23.354;2024-01-11T09:58:36;95757.25;;;0.97;59.96
7834;BME280;3962;42.696;23.354;2024-01-11T10:01:09;95757.06;;;0.84;61.58
7834;BME280;3962;42.696;23.354;2024-01-11T10:03:39;95752.34;;;0.40;63.64
7834;BME280;3962;42.696;23.354;2024-01-11T10:06:07;95755.97;;;0.54;63.10
7834;BME280;3962;42.696;23.354;2024-01-11T10:08:41;95742.81;;;0.73;61.59
7834;BME280;3962;42.696;23.354;2024-01-11T10:11:10;95748.84;;;0.90;62.66
7834;BME280;3962;42.696;23.354;2024-01-11T10:13:37;95747.06;;;0.75;62.87
7834;BME280;3962;42.696;23.354;2024-01-11T10:16:06;95736.16;;;0.83;62.32
7834;BME280;3962;42.696;23.354;2024-01-11T10:18:39;95718.56;;;0.52;63.08
7834;BME280;3962;42.696;23.354;2024-01-11T10:21:06;95723.91;;;0.66;62.24
7834;BME280;3962;42.696;23.354;2024-01-11T10:23:34;95723.78;;;0.69;62.38
7834;BME280;3962;42.696;23.354;2024-01-11T10:26:04;95718.91;;;0.62;64.20
7834;BME280;3962;42.696;23.354;2024-01-11T10:28:32;95715.63;;;0.58;63.64
7834;BME280;3962;42.696;23.354;2024-01-11T10:31:03;95708.84;;;0.54;63.78
7834;BME280;3962;42.696;23.354;2024-01-11T10:33:30;95705.59;;;0.49;63.96
7834;BME280;3962;42.696;23.354;2024-01-11T10:35:57;95680.59;;;0.27;64.77
7834;BME280;3962;42.696;23.354;2024-01-11T10:38:26;95688.91;;;0.18;66.13
7834;BME280;3962;42.696;23.354;2024-01-11T10:41:00;95685.44;;;0.17;65.44
7834;BME280;3962;42.696;23.354;2024-01-11T10:43:29;95684.38;;;0.21;66.14
7834;BME280;3962;42.696;23.354;2024-01-11T10:45:59;95682.59;;;0.22;66.22
7834;BME280;3962;42.696;23.354;2024-01-11T10:48:30;95678.00;;;0.27;65.80
7834;BME280;3962;42.696;23.354;2024-01-11T10:51:00;95672.81;;;0.42;65.69
7834;BME280;3962;42.696;23.354;2024-01-11T10:53:34;95668.88;;;0.51;64.18
7834;BME280;3962;42.696;23.354;2024-01-11T10:56:05;95665.34;;;0.52;64.97
7834;BME280;3962;42.696;23.354;2024-01-11T10:58:34;95666.72;;;0.59;64.66
7834;BME280;3962;42.696;23.354;2024-01-11T11:01:02;95663.38;;;0.72;65.03
7834;BME280;3962;42.696;23.354;2024-01-11T11:03:30;95646.44;;;0.79;64.72
7834;BME280;3962;42.696;23.354;2024-01-11T11:05:58;95640.13;;;0.66;64.12
7834;BME280;3962;42.696;23.354;2024-01-11T11:08:27;95639.63;;;0.60;64.58
7834;BME280;3962;42.696;23.354;2024-01-11T11:10:56;95615.69;;;0.50;66.10
7834;BME280;3962;42.696;23.354;2024-01-11T11:13:23;95629.63;;;0.51;66.13
7834;BME280;3962;42.696;23.354;2024-01-11T11:15:56;95613.41;;;0.44;66.66
7834;BME280;3962;42.696;23.354;2024-01-11T11:18:24;95613.47;;;0.43;67.06
7834;BME280;3962;42.696;23.354;2024-01-11T11:20:51;95611.47;;;0.48;66.61
7834;BME280;3962;42.696;23.354;2024-01-11T11:23:19;95604.31;;;0.51;66.69
7834;BME280;3962;42.696;23.354;2024-01-11T11:25:47;95598.03;;;0.54;67.24
7834;BME280;3962;42.696;23.354;2024-01-11T11:28:16;95593.25;;;0.62;66.30
7834;BME280;3962;42.696;23.354;2024-01-11T11:30:49;95584.56;;;0.61;66.38
7834;BME280;3962;42.696;23.354;2024-01-11T11:33:23;95575.78;;;0.62;66.82
7834;BME280;3962;42.696;23.354;2024-01-11T11:35:53;95573.16;;;0.62;66.57
7834;BME280;3962;42.696;23.354;2024-01-11T11:38:21;95562.38;;;0.68;67.04
7834;BME280;3962;42.696;23.354;2024-01-11T11:40:51;95562.94;;;0.73;66.08
7834;BME280;3962;42.696;23.354;2024-01-11T11:43:19;95555.19;;;0.72;66.83
7834;BME280;3962;42.696;23.354;2024-01-11T11:45:48;95552.16;;;0.79;66.69
7834;BME280;3962;42.696;23.354;2024-01-11T11:48:49;95558.84;;;1.00;66.06
7834;BME280;3962;42.696;23.354;2024-01-11T11:51:18;95551.94;;;0.99;66.65
7834;BME280;3962;42.696;23.354;2024-01-11T11:53:48;95551.41;;;1.08;65.68
7834;BME280;3962;42.696;23.354;2024-01-11T11:56:18;95541.34;;;1.16;66.18
7834;BME280;3962;42.696;23.354;2024-01-11T11:58:46;95535.25;;;1.31;66.09
7834;BME280;3962;42.696;23.354;2024-01-11T12:01:14;95536.59;;;1.38;65.56
7834;BME280;3962;42.696;23.354;2024-01-11T12:03:44;95527.81;;;1.39;66.47
7834;BME280;3962;42.696;23.354;2024-01-11T12:06:17;95529.91;;;1.48;66.38
7834;BME280;3962;42.696;23.354;2024-01-11T12:08:46;95525.06;;;1.56;66.29
7834;BME280;3962;42.696;23.354;2024-01-11T12:11:14;95514.22;;;1.62;67.32
7834;BME280;3962;42.696;23.354;2024-01-11T12:13:41;95499.81;;;1.69;67.30
7834;BME280;3962;42.696;23.354;2024-01-11T12:16:10;95504.09;;;2.00;66.50
7834;BME280;3962;42.696;23.354;2024-01-11T12:18:37;95502.88;;;2.05;66.59
7834;BME280;3962;42.696;23.354;2024-01-11T12:21:05;95499.97;;;2.10;65.68
7834;BME280;3962;42.696;23.354;2024-01-11T12:23:36;95497.31;;;1.96;67.06
7834;BME280;3962;42.696;23.354;2024-01-11T12:26:06;95494.72;;;2.10;67.28
7834;BME280;3962;42.696;23.354;2024-01-11T12:28:39;95481.69;;;2.22;66.32
7834;BME280;3962;42.696;23.354;2024-01-11T12:31:07;95476.91;;;2.43;65.63
7834;BME280;3962;42.696;23.354;2024-01-11T12:33:34;95473.25;;;2.59;65.47
7834;BME280;3962;42.696;23.354;2024-01-11T12:36:05;95482.16;;;2.71;65.36
7834;BME280;3962;42.696;23.354;2024-01-11T12:38:36;95468.88;;;2.86;65.52
7834;BME280;3962;42.696;23.354;2024-01-11T12:41:04;95464.28;;;2.90;65.80
7834;BME280;3962;42.696;23.354;2024-01-11T12:43:31;95457.19;;;2.92;65.83
7834;BME280;3962;42.696;23.354;2024-01-11T12:46:02;95459.38;;;2.98;66.78
7834;BME280;3962;42.696;23.354;2024-01-11T12:48:29;95446.78;;;2.76;65.92
7834;BME280;3962;42.696;23.354;2024-01-11T12:50:56;95446.50;;;2.67;67.30
7834;BME280;3962;42.696;23.354;2024-01-11T12:53:24;95446.56;;;2.79;66.07
7834;BME280;3962;42.696;23.354;2024-01-11T12:56:04;95444.03;;;2.92;65.80
7834;BME280;3962;42.696;23.354;2024-01-11T12:58:34;95425.97;;;2.73;65.02
7834;BME280;3962;42.696;23.354;2024-01-11T13:01:01;95438.16;;;2.74;65.85
7834;BME280;3962;42.696;23.354;2024-01-11T13:03:28;95435.38;;;2.90;66.04
7834;BME280;3962;42.696;23.354;2024-01-11T13:05:56;95429.75;;;2.96;66.33
7834;BME280;3962;42.696;23.354;2024-01-11T13:08:24;95428.66;;;3.12;65.76
7834;BME280;3962;42.696;23.354;2024-01-11T13:10:53;95433.34;;;3.34;64.87
7834;BME280;3962;42.696;23.354;2024-01-11T13:13:22;95425.69;;;3.31;65.41
7834;BME280;3962;42.696;23.354;2024-01-11T13:15:49;95415.22;;;3.55;64.52
7834;BME280;3962;42.696;23.354;2024-01-11T13:18:18;95416.22;;;3.41;64.34